Van Horne, Iowa
Current Conditions -  °F | °C
As of 3:55 AM on Monday 22 Dec 2014 (Local Time) from KVTI Reporting Station
Haze Haze  
Wind Chill: 30°   Ceiling: 3700
Heat Index: 38°   Visibility: 5mi
Dew Point: 34°   Wind: 12mph
Humidity: 87%   Direction: 150°SSE
Pressure: 29.77"   Gusts: NA
Location:  42.01°N, 92.09°W
Report Text: KVTI 220955Z AUTO 15010KT 5SM BR SCT012 SCT031 BKN037 03/01 A2977 RMK AO2 T00310012
Loading
Personal Weather Stations






























Interactive Weather Map New forecast layout! Learn more

10-Day Weather Forecast

Advertisements
Track Severe Weather on mobile